createdAt,value
2023-05-08T00:01:50.082Z,421.67
2023-05-08T00:04:38.376Z,421.95
2023-05-08T00:07:26.357Z,432.08
2023-05-08T00:10:14.824Z,407.20
2023-05-08T00:13:02.995Z,415.08
2023-05-08T00:15:52.731Z,409.27
2023-05-08T00:18:41.077Z,430.38
2023-05-08T00:21:29.255Z,433.25
2023-05-08T00:24:17.158Z,397.17
2023-05-08T00:27:05.058Z,417.98
2023-05-08T00:29:52.977Z,412.27
2023-05-08T00:32:42.506Z,420.83
2023-05-08T00:35:30.469Z,396.70
2023-05-08T00:38:18.918Z,436.00
2023-05-08T00:41:06.998Z,414.80
2023-05-08T00:43:55.447Z,409.05
2023-05-08T00:46:44.077Z,403.02
2023-05-08T00:49:35.880Z,420.80
2023-05-08T00:52:23.905Z,443.85
2023-05-08T00:55:12.360Z,412.65
2023-05-08T00:58:00.729Z,425.48
2023-05-08T01:00:51.476Z,405.92
2023-05-08T01:03:39.939Z,419.70
2023-05-08T01:06:29.911Z,422.67
2023-05-08T01:09:17.848Z,414.75
2023-05-08T01:12:16.409Z,426.70
2023-05-08T01:15:13.309Z,423.45
2023-05-08T01:18:13.068Z,409.38
2023-05-08T01:21:04.971Z,408.30
2023-05-08T01:24:34.548Z,416.60
2023-05-08T01:27:45.969Z,417.63
2023-05-08T01:30:59.845Z,424.13
2023-05-08T01:33:55.914Z,407.60
2023-05-08T01:36:51.608Z,399.98
2023-05-08T01:39:45.402Z,440.98
2023-05-08T01:42:45.870Z,422.08
2023-05-08T01:45:39.769Z,423.38
2023-05-08T01:48:33.847Z,444.10
2023-05-08T01:51:26.438Z,441.73
2023-05-08T01:54:21.087Z,439.45
2023-05-08T01:57:11.717Z,410.27
2023-05-08T02:00:01.916Z,421.65
2023-05-08T02:02:51.665Z,413.27
2023-05-08T02:05:41.529Z,426.10
2023-05-08T02:08:32.876Z,430.65
2023-05-08T02:11:22.944Z,429.92
2023-05-08T02:14:14.180Z,446.35
2023-05-08T02:17:04.059Z,452.48
2023-05-08T02:19:53.442Z,433.83
2023-05-08T02:22:44.442Z,452.63
2023-05-08T02:25:34.324Z,419.05
2023-05-08T02:28:24.250Z,442.52
2023-05-08T02:31:13.474Z,436.33
2023-05-08T02:34:02.537Z,434.23
2023-05-08T02:36:53.363Z,405.33
2023-05-08T02:39:43.544Z,425.20
2023-05-08T02:42:33.499Z,427.88
2023-05-08T02:45:23.408Z,449.15
2023-05-08T02:48:20.554Z,433.70
2023-05-08T02:51:19.375Z,440.55
2023-05-08T02:54:11.741Z,424.00
2023-05-08T02:57:05.130Z,399.00
2023-05-08T03:00:00.497Z,446.23
2023-05-08T03:02:54.138Z,412.23
2023-05-08T03:05:48.382Z,412.63
2023-05-08T03:08:38.011Z,409.70
2023-05-08T03:11:32.554Z,435.10
2023-05-08T03:14:23.954Z,405.85
2023-05-08T03:17:18.632Z,409.98
2023-05-08T03:20:11.710Z,414.38
2023-05-08T03:23:01.631Z,435.02
2023-05-08T03:25:49.611Z,414.25
2023-05-08T03:28:39.398Z,437.45
2023-05-08T03:31:28.591Z,441.63
2023-05-08T03:34:19.935Z,425.98
2023-05-08T03:37:08.395Z,422.83
2023-05-08T03:39:56.866Z,435.50
2023-05-08T03:42:46.040Z,410.23
2023-05-08T03:45:36.917Z,414.10
2023-05-08T03:48:26.974Z,423.95
2023-05-08T03:51:17.011Z,427.58
2023-05-08T03:54:05.332Z,421.88
2023-05-08T03:56:54.739Z,429.17
2023-05-08T03:59:50.975Z,403.23
2023-05-08T04:02:45.260Z,414.25
2023-05-08T04:05:37.997Z,405.95
2023-05-08T04:08:36.021Z,415.25
2023-05-08T04:11:30.958Z,414.27
2023-05-08T04:14:23.331Z,397.30
2023-05-08T04:17:15.380Z,402.05
2023-05-08T04:20:05.893Z,393.63
2023-05-08T04:22:55.812Z,409.90
2023-05-08T04:25:49.476Z,407.38
2023-05-08T04:28:37.980Z,406.40
2023-05-08T04:31:29.259Z,425.02
2023-05-08T04:34:19.263Z,406.13
2023-05-08T04:37:07.841Z,406.88
2023-05-08T04:39:56.633Z,393.88
2023-05-08T04:42:47.636Z,416.10
2023-05-08T04:45:37.884Z,401.48
2023-05-08T04:48:26.493Z,410.77
2023-05-08T04:51:14.651Z,412.60
2023-05-08T04:54:03.442Z,395.85
2023-05-08T04:56:52.036Z,407.17
2023-05-08T04:59:41.683Z,424.65
2023-05-08T05:02:30.408Z,399.67
2023-05-08T05:05:18.914Z,397.08
2023-05-08T05:08:07.146Z,394.67
2023-05-08T05:10:55.129Z,414.77
2023-05-08T05:13:43.588Z,414.58
2023-05-08T05:16:33.434Z,410.10
2023-05-08T05:19:21.645Z,426.67
2023-05-08T05:22:09.691Z,421.60
2023-05-08T05:24:58.275Z,420.20
2023-05-08T05:27:47.137Z,416.98
2023-05-08T05:30:35.543Z,424.67
2023-05-08T05:33:24.903Z,407.30
2023-05-08T05:36:13.660Z,404.05
2023-05-08T05:39:02.279Z,400.35
2023-05-08T05:41:50.956Z,399.35
2023-05-08T05:44:39.707Z,395.05
2023-05-08T05:47:27.720Z,393.17
2023-05-08T05:50:18.478Z,414.02
2023-05-08T05:53:07.588Z,384.70
2023-05-08T05:55:55.852Z,398.05
2023-05-08T05:58:45.360Z,408.38
2023-05-08T06:01:33.978Z,420.00
2023-05-08T06:04:22.043Z,424.38
2023-05-08T06:07:11.601Z,414.75
2023-05-08T06:09:59.673Z,405.65
2023-05-08T06:12:47.837Z,421.58
2023-05-08T06:15:36.791Z,442.55
2023-05-08T06:18:25.177Z,392.73
2023-05-08T06:21:13.131Z,404.10
2023-05-08T06:24:02.650Z,400.38
2023-05-08T06:26:50.605Z,439.95
2023-05-08T06:29:38.871Z,407.65
2023-05-08T06:32:26.867Z,402.50
2023-05-08T06:35:15.679Z,413.55
2023-05-08T06:38:03.618Z,410.40
2023-05-08T06:40:54.077Z,423.17
2023-05-08T06:43:41.977Z,422.85
2023-05-08T06:46:30.130Z,425.20
2023-05-08T06:49:18.153Z,427.77
2023-05-08T06:52:06.559Z,415.98
2023-05-08T06:54:54.505Z,409.00
2023-05-08T06:57:43.921Z,426.67
2023-05-08T07:00:32.344Z,401.77
2023-05-08T07:03:20.834Z,414.75
2023-05-08T07:06:09.884Z,402.98
2023-05-08T07:08:57.891Z,406.35
2023-05-08T07:11:45.800Z,410.73
2023-05-08T07:14:35.635Z,401.65
2023-05-08T07:17:23.553Z,400.17
2023-05-08T07:20:12.060Z,421.67
2023-05-08T07:22:59.981Z,408.38
2023-05-08T07:25:48.034Z,422.48
2023-05-08T07:28:35.973Z,396.50
2023-05-08T07:31:25.443Z,405.70
2023-05-08T07:34:13.664Z,388.17
2023-05-08T07:37:01.805Z,405.33
2023-05-08T07:39:49.706Z,393.48
2023-05-08T07:42:42.353Z,413.40
2023-05-08T07:45:30.432Z,403.73
2023-05-08T07:48:20.088Z,406.85
2023-05-08T07:51:08.005Z,417.52
2023-05-08T07:53:56.329Z,407.30
2023-05-08T07:56:44.269Z,420.40
2023-05-08T07:59:32.343Z,432.45
2023-05-08T08:02:26.409Z,403.23
2023-05-08T08:05:16.157Z,401.52
2023-05-08T08:08:04.735Z,417.33
2023-05-08T08:10:52.745Z,408.92
2023-05-08T08:13:41.887Z,404.55
2023-05-08T08:16:29.781Z,424.42
2023-05-08T08:19:18.020Z,407.25
2023-05-08T08:22:07.699Z,418.40
2023-05-08T08:24:56.199Z,419.48
2023-05-08T08:27:44.149Z,398.58
2023-05-08T08:30:32.410Z,413.73
2023-05-08T08:33:20.410Z,405.77
2023-05-08T08:36:14.556Z,399.55
2023-05-08T08:39:04.271Z,400.90
2023-05-08T08:41:52.172Z,426.00
2023-05-08T08:44:40.208Z,413.85
2023-05-08T08:47:30.254Z,415.80
2023-05-08T08:50:22.335Z,430.08
2023-05-08T08:53:12.472Z,408.15
2023-05-08T08:56:02.986Z,412.00
2023-05-08T08:58:55.913Z,418.42
2023-05-08T09:01:46.869Z,419.20
2023-05-08T09:04:34.784Z,392.40
2023-05-08T09:07:24.381Z,394.05
2023-05-08T09:10:15.321Z,398.17
2023-05-08T09:13:05.046Z,419.00
2023-05-08T09:15:53.700Z,441.25
2023-05-08T09:18:41.652Z,410.70
2023-05-08T09:21:29.931Z,416.02
2023-05-08T09:24:17.788Z,418.20
2023-05-08T09:27:22.411Z,420.45
2023-05-08T09:30:14.253Z,398.02
2023-05-08T09:33:02.961Z,434.77
2023-05-08T09:35:52.090Z,438.02
2023-05-08T09:38:43.568Z,431.45
2023-05-08T09:41:31.944Z,410.83
2023-05-08T09:44:19.837Z,433.83
2023-05-08T09:47:13.266Z,414.15
2023-05-08T09:50:02.824Z,410.75
2023-05-08T09:52:51.432Z,443.88
2023-05-08T09:55:49.016Z,444.08
2023-05-08T09:58:40.785Z,466.88
2023-05-08T10:01:30.517Z,443.60
2023-05-08T10:04:31.898Z,440.27
2023-05-08T10:07:28.835Z,421.75
2023-05-08T10:10:25.222Z,438.13
2023-05-08T10:13:13.531Z,428.10
2023-05-08T10:16:01.976Z,427.33
2023-05-08T10:18:51.770Z,426.98
2023-05-08T10:21:45.095Z,462.55
2023-05-08T10:24:34.679Z,460.58
2023-05-08T10:27:30.440Z,433.48
2023-05-08T10:30:18.748Z,446.83
2023-05-08T10:33:10.612Z,463.52
2023-05-08T10:35:59.498Z,436.83
2023-05-08T10:38:49.861Z,451.63
2023-05-08T10:41:39.377Z,430.90
2023-05-08T10:44:29.603Z,460.30
2023-05-08T10:47:26.229Z,467.10
2023-05-08T10:50:27.872Z,435.60
2023-05-08T10:53:21.546Z,433.90
2023-05-08T10:56:11.736Z,458.85
2023-05-08T10:59:00.872Z,446.70
2023-05-08T11:01:50.036Z,447.67
2023-05-08T11:04:38.361Z,437.75
2023-05-08T11:07:52.132Z,465.88
2023-05-08T11:10:40.808Z,438.98
2023-05-08T11:13:35.001Z,450.50
2023-05-08T11:17:01.201Z,470.55
2023-05-08T11:19:57.365Z,438.92
2023-05-08T11:22:48.883Z,444.77
2023-05-08T11:25:44.034Z,443.77
2023-05-08T11:28:34.690Z,455.05
2023-05-08T11:31:22.835Z,449.13
2023-05-08T11:34:49.338Z,448.23
2023-05-08T11:37:38.180Z,445.90
2023-05-08T11:40:48.726Z,445.85
2023-05-08T11:44:21.549Z,442.67
2023-05-08T11:47:19.406Z,420.25
2023-05-08T11:50:09.820Z,460.98
2023-05-08T11:52:57.763Z,446.73
2023-05-08T11:55:49.182Z,470.92
2023-05-08T11:58:37.399Z,486.00
2023-05-08T12:01:25.309Z,425.33
2023-05-08T12:04:14.654Z,454.20
2023-05-08T12:07:02.880Z,456.15
2023-05-08T12:09:51.698Z,462.30
2023-05-08T12:12:40.601Z,443.65
2023-05-08T12:15:28.916Z,449.40
2023-05-08T12:18:17.933Z,461.90
2023-05-08T12:21:07.326Z,456.80
2023-05-08T12:23:55.954Z,465.15
2023-05-08T12:26:43.887Z,456.58
2023-05-08T12:30:21.980Z,433.88
2023-05-08T12:33:36.065Z,449.55
2023-05-08T12:36:25.286Z,410.52
2023-05-08T12:39:14.115Z,439.02
2023-05-08T12:42:02.462Z,424.30
2023-05-08T12:44:53.976Z,466.17
2023-05-08T12:47:41.954Z,433.23
2023-05-08T12:50:32.780Z,438.77
2023-05-08T12:53:23.375Z,424.23
2023-05-08T12:56:11.576Z,464.50
2023-05-08T12:59:00.232Z,460.77
2023-05-08T13:01:51.885Z,441.70
2023-05-08T13:04:39.941Z,460.23
2023-05-08T13:07:32.977Z,456.48
2023-05-08T13:10:24.419Z,443.67
2023-05-08T13:13:13.940Z,459.42
2023-05-08T13:16:04.192Z,448.77
2023-05-08T13:18:52.505Z,463.45
2023-05-08T13:21:40.407Z,437.42
2023-05-08T13:24:28.478Z,438.35
2023-05-08T13:27:17.965Z,480.50
2023-05-08T13:30:07.188Z,457.92
2023-05-08T13:32:55.519Z,462.33
2023-05-08T13:35:43.474Z,450.85
2023-05-08T13:38:31.858Z,472.50
2023-05-08T13:41:19.744Z,453.45
2023-05-08T13:44:09.382Z,474.15
2023-05-08T13:46:57.343Z,464.27
2023-05-08T13:49:46.946Z,454.95
2023-05-08T13:52:35.029Z,444.10
2023-05-08T13:55:23.602Z,462.42
2023-05-08T13:58:12.150Z,450.63
2023-05-08T14:01:10.308Z,460.90
2023-05-08T14:04:06.934Z,445.70
2023-05-08T14:06:54.983Z,477.75
2023-05-08T14:09:43.263Z,475.92
2023-05-08T14:12:35.701Z,438.38
2023-05-08T14:15:27.012Z,413.73
2023-05-08T14:18:21.251Z,459.95
2023-05-08T14:21:09.133Z,474.05
2023-05-08T14:23:57.285Z,434.27
2023-05-08T14:26:45.246Z,420.25
2023-05-08T14:29:33.493Z,433.50
2023-05-08T14:32:21.472Z,431.42
2023-05-08T14:35:11.540Z,435.63
2023-05-08T14:37:59.479Z,437.75
2023-05-08T14:40:51.050Z,418.58
2023-05-08T14:43:38.963Z,432.95
2023-05-08T14:46:27.333Z,404.60
2023-05-08T14:49:22.232Z,411.05
2023-05-08T14:52:18.494Z,425.00
2023-05-08T14:55:07.972Z,421.58
2023-05-08T14:57:56.309Z,423.55
2023-05-08T15:00:44.485Z,449.30
2023-05-08T15:03:32.485Z,437.00
2023-05-08T15:06:22.236Z,434.33
2023-05-08T15:09:11.581Z,428.00
2023-05-08T15:12:00.107Z,417.65
2023-05-08T15:14:48.409Z,439.92
2023-05-08T15:17:36.530Z,440.63
2023-05-08T15:20:24.742Z,463.85
2023-05-08T15:23:12.643Z,431.55
2023-05-08T15:26:04.295Z,447.98
2023-05-08T15:28:52.288Z,449.02
2023-05-08T15:31:40.487Z,461.90
2023-05-08T15:34:32.499Z,420.00
2023-05-08T15:37:21.075Z,448.83
2023-05-08T15:40:10.228Z,482.05
2023-05-08T15:42:59.610Z,461.13
2023-05-08T15:45:47.821Z,478.30
2023-05-08T15:48:35.793Z,465.85
2023-05-08T15:51:24.134Z,456.42
2023-05-08T15:54:12.001Z,449.48
2023-05-08T15:57:00.177Z,460.02
2023-05-08T15:59:49.451Z,443.70
2023-05-08T16:02:37.663Z,479.40
2023-05-08T16:05:25.592Z,484.75
2023-05-08T16:08:14.208Z,460.88
2023-05-08T16:11:02.154Z,449.35
2023-05-08T16:13:50.367Z,478.27
2023-05-08T16:16:41.149Z,470.70
2023-05-08T16:19:29.711Z,463.58
2023-05-08T16:22:17.605Z,451.92
2023-05-08T16:25:06.286Z,481.15
2023-05-08T16:27:54.220Z,488.90
2023-05-08T16:30:42.564Z,460.13
2023-05-08T16:33:33.006Z,459.38
2023-05-08T16:36:21.186Z,430.70
2023-05-08T16:39:09.265Z,457.02
2023-05-08T16:41:57.555Z,459.85
2023-05-08T16:44:45.513Z,469.40
2023-05-08T16:47:34.298Z,466.80
2023-05-08T16:50:23.605Z,455.50
2023-05-08T16:53:11.562Z,454.20
2023-05-08T16:55:59.474Z,452.42
2023-05-08T16:58:47.838Z,479.80
2023-05-08T17:01:35.780Z,505.67
2023-05-08T17:04:23.869Z,470.65
2023-05-08T17:07:13.146Z,450.85
2023-05-08T17:10:01.345Z,462.58
2023-05-08T17:12:50.518Z,475.02
2023-05-08T17:15:39.974Z,476.25
2023-05-08T17:18:27.848Z,442.90
2023-05-08T17:21:16.278Z,460.50
2023-05-08T17:24:06.344Z,492.20
2023-05-08T17:26:54.385Z,481.88
2023-05-08T17:29:42.277Z,489.20
2023-05-08T17:32:30.435Z,467.63
2023-05-08T17:35:18.431Z,470.58
2023-05-08T17:38:06.554Z,464.70
2023-05-08T17:40:56.285Z,479.20
2023-05-08T17:43:44.586Z,467.17
2023-05-08T17:46:32.480Z,460.40
2023-05-08T17:49:20.509Z,486.55
2023-05-08T17:52:08.439Z,475.88
2023-05-08T17:54:56.694Z,485.75
2023-05-08T17:57:45.957Z,467.33
2023-05-08T18:00:34.157Z,473.23
2023-05-08T18:03:22.237Z,472.45
2023-05-08T18:06:10.227Z,489.45
2023-05-08T18:08:58.178Z,527.85
2023-05-08T18:11:46.442Z,497.27
2023-05-08T18:14:35.760Z,515.58
2023-05-08T18:17:24.099Z,483.50
2023-05-08T18:20:12.840Z,494.25
2023-05-08T18:23:01.321Z,509.23
2023-05-08T18:25:49.228Z,491.88
2023-05-08T18:28:37.637Z,503.35
2023-05-08T18:31:26.947Z,465.80
2023-05-08T18:34:15.306Z,517.03
2023-05-08T18:37:03.246Z,511.90
2023-05-08T18:39:51.717Z,498.55
2023-05-08T18:42:39.614Z,483.45
2023-05-08T18:45:28.214Z,485.48
2023-05-08T18:48:17.466Z,481.92
2023-05-08T18:51:06.435Z,483.40
2023-05-08T18:53:57.042Z,485.08
2023-05-08T18:56:45.199Z,485.33
2023-05-08T18:59:33.098Z,452.00
2023-05-08T19:02:21.298Z,452.75
2023-05-08T19:05:10.856Z,478.48
2023-05-08T19:07:59.172Z,449.60
2023-05-08T19:10:47.105Z,464.48
2023-05-08T19:13:35.205Z,459.13
2023-05-08T19:16:23.183Z,461.70
2023-05-08T19:19:11.376Z,436.33
2023-05-08T19:22:00.675Z,451.60
2023-05-08T19:24:48.983Z,439.38
2023-05-08T19:27:36.966Z,440.27
2023-05-08T19:30:25.040Z,416.55
2023-05-08T19:33:12.979Z,435.00
2023-05-08T19:36:01.073Z,459.63
2023-05-08T19:38:50.290Z,449.25
2023-05-08T19:41:38.570Z,423.15
2023-05-08T19:44:27.936Z,438.52
2023-05-08T19:47:16.393Z,427.88
2023-05-08T19:50:04.678Z,444.15
2023-05-08T19:52:52.992Z,453.45
2023-05-08T19:55:42.245Z,429.27
2023-05-08T19:58:30.200Z,440.80
2023-05-08T20:01:18.165Z,417.75
2023-05-08T20:04:06.719Z,432.25
2023-05-08T20:06:54.681Z,451.40
2023-05-08T20:09:42.908Z,432.60
2023-05-08T20:12:32.130Z,446.10
2023-05-08T20:15:20.821Z,447.90
2023-05-08T20:18:09.307Z,428.00
2023-05-08T20:20:57.562Z,416.63
2023-05-08T20:23:45.494Z,445.20
2023-05-08T20:26:34.519Z,451.80
2023-05-08T20:29:24.412Z,437.63
2023-05-08T20:32:15.054Z,422.67
2023-05-08T20:35:03.138Z,438.77
2023-05-08T20:37:51.049Z,435.20
2023-05-08T20:40:39.326Z,450.40
2023-05-08T20:43:27.217Z,425.50
2023-05-08T20:46:16.893Z,409.17
2023-05-08T20:49:05.946Z,435.25
2023-05-08T20:51:53.851Z,425.73
2023-05-08T20:54:44.289Z,426.15
2023-05-08T20:57:32.519Z,418.65
2023-05-08T21:00:21.138Z,428.55
2023-05-08T21:03:10.861Z,430.23
2023-05-08T21:05:58.776Z,439.38
2023-05-08T21:08:47.056Z,439.40
2023-05-08T21:11:35.037Z,429.27
2023-05-08T21:14:23.376Z,444.35
2023-05-08T21:17:11.260Z,444.50
2023-05-08T21:20:00.560Z,412.15
2023-05-08T21:22:48.457Z,437.35
2023-05-08T21:25:36.600Z,442.80
2023-05-08T21:28:25.047Z,419.42
2023-05-08T21:31:13.010Z,425.05
2023-05-08T21:34:01.243Z,438.60
2023-05-08T21:36:50.513Z,446.80
2023-05-08T21:39:38.747Z,441.10
2023-05-08T21:42:26.698Z,437.25
2023-05-08T21:45:15.464Z,432.20
2023-05-08T21:48:03.776Z,436.80
2023-05-08T21:50:52.171Z,424.98
2023-05-08T21:53:41.586Z,444.85
2023-05-08T21:56:29.478Z,420.00
2023-05-08T21:59:18.389Z,434.52
2023-05-08T22:02:06.405Z,440.67
2023-05-08T22:04:54.688Z,450.73
2023-05-08T22:07:42.671Z,470.65
2023-05-08T22:10:32.217Z,438.40
2023-05-08T22:13:20.222Z,438.15
2023-05-08T22:16:09.402Z,414.98
2023-05-08T22:18:57.390Z,429.25
2023-05-08T22:21:45.693Z,430.92
2023-05-08T22:24:33.772Z,430.90
2023-05-08T22:27:23.008Z,419.10
2023-05-08T22:30:11.562Z,439.77
2023-05-08T22:33:00.100Z,425.80
2023-05-08T22:35:48.063Z,447.35
2023-05-08T22:38:35.938Z,428.50
2023-05-08T22:41:24.168Z,411.65
2023-05-08T22:44:13.623Z,430.65
2023-05-08T22:47:02.282Z,435.80
2023-05-08T22:49:50.491Z,448.00
2023-05-08T22:52:39.479Z,421.75
2023-05-08T22:55:27.575Z,420.13
2023-05-08T22:58:15.616Z,438.52
2023-05-08T23:01:05.286Z,435.75
2023-05-08T23:03:53.730Z,426.45
2023-05-08T23:06:41.894Z,405.70
2023-05-08T23:09:30.692Z,443.73
2023-05-08T23:12:18.983Z,428.05
2023-05-08T23:15:08.312Z,444.30
2023-05-08T23:17:58.045Z,407.27
2023-05-08T23:20:46.422Z,413.75
2023-05-08T23:23:34.470Z,435.65
2023-05-08T23:26:22.680Z,423.15
2023-05-08T23:29:10.563Z,452.75
2023-05-08T23:31:58.740Z,433.10
2023-05-08T23:34:48.062Z,455.70
2023-05-08T23:37:36.171Z,415.38
2023-05-08T23:40:24.359Z,407.35
2023-05-08T23:43:12.514Z,442.23
2023-05-08T23:46:00.739Z,416.27
2023-05-08T23:48:48.689Z,422.83
2023-05-08T23:51:38.215Z,434.70
2023-05-08T23:54:26.794Z,418.73
2023-05-08T23:57:15.406Z,410.20
